Time;durP1;ratioP1;P1;durP2;ratioP2;P2;SDS_P1;SDS_P2;PMS_P1;PMS_P2;Temp;Humidity;BMP_temperature;BMP_pressure;BME280_temperature;BME280_humidity;BME280_pressure;Samples;Min_cycle;Max_cycle;Signal;HPM_P1;HPM_P2
2023/07/17 00:01:00;;;;;;;10.50;3.63;;;;;;;;;;6242785;23;20024;-62
2023/07/17 00:03:26;;;;;;;11.38;2.55;;;;;;;;;;6243568;23;20476;-61
2023/07/17 00:05:52;;;;;;;4.47;1.80;;;;;;;;;;6243341;23;20059;-61
2023/07/17 00:08:18;;;;;;;3.95;1.52;;;;;;;;;;6243639;23;20031;-64
2023/07/17 00:10:44;;;;;;;8.18;2.80;;;;;;;;;;6244636;23;20016;-61
2023/07/17 00:13:13;;;;;;;6.03;1.85;;;;;;;;;;6243956;23;20054;-62
2023/07/17 00:15:39;;;;;;;6.57;1.95;;;;;;;;;;6244600;23;20058;-62
2023/07/17 00:18:05;;;;;;;6.10;2.03;;;;;;;;;;6241981;23;20020;-62
2023/07/17 00:20:32;;;;;;;4.88;1.67;;;;;;;;;;6244153;23;20856;-62
2023/07/17 00:22:58;;;;;;;8.15;1.88;;;;;;;;;;6243456;22;20031;-63
2023/07/17 00:25:24;;;;;;;8.73;2.05;;;;;;;;;;6242948;23;20020;-61
2023/07/17 00:27:51;;;;;;;8.50;2.35;;;;;;;;;;6244206;23;20329;-62
2023/07/17 00:30:17;;;;;;;7.75;1.95;;;;;;;;;;6252276;22;20015;-62
2023/07/17 00:32:43;;;;;;;8.63;2.60;;;;;;;;;;6247657;22;20024;-61
2023/07/17 00:35:10;;;;;;;7.78;2.75;;;;;;;;;;6274686;22;20019;-62
2023/07/17 00:37:36;;;;;;;10.98;3.58;;;;;;;;;;6273864;22;20142;-61
2023/07/17 00:40:04;;;;;;;7.63;2.67;;;;;;;;;;6274886;22;20034;-62
2023/07/17 00:42:30;;;;;;;9.15;2.97;;;;;;;;;;6274593;22;20026;-62
2023/07/17 00:44:56;;;;;;;5.55;2.13;;;;;;;;;;6247528;22;20460;-61
2023/07/17 00:47:22;;;;;;;9.75;3.95;;;;;;;;;;6277703;22;20027;-61
2023/07/17 00:49:48;;;;;;;9.63;2.60;;;;;;;;;;6278691;22;20031;-62
2023/07/17 00:52:15;;;;;;;8.98;3.33;;;;;;;;;;6277265;22;20126;-62
2023/07/17 00:54:41;;;;;;;11.40;2.72;;;;;;;;;;6277416;22;20023;-62
2023/07/17 00:57:08;;;;;;;11.63;2.70;;;;;;;;;;6275167;22;20469;-61
2023/07/17 00:59:34;;;;;;;7.53;2.95;;;;;;;;;;6249563;22;20031;-61
2023/07/17 01:02:00;;;;;;;13.70;3.72;;;;;;;;;;6250800;22;20020;-61
2023/07/17 01:04:27;;;;;;;6.53;2.70;;;;;;;;;;6250467;22;20024;-61
2023/07/17 01:06:53;;;;;;;9.65;2.80;;;;;;;;;;6250115;22;20020;-61
2023/07/17 01:09:20;;;;;;;8.27;3.30;;;;;;;;;;6277525;22;20344;-61
2023/07/17 01:11:46;;;;;;;9.32;3.08;;;;;;;;;;6251053;22;20019;-61
2023/07/17 01:14:19;;;;;;;12.52;2.40;;;;;;;;;;6277031;22;20077;-61
2023/07/17 01:16:48;;;;;;;10.80;2.65;;;;;;;;;;6278646;22;20103;-62
2023/07/17 01:19:15;;;;;;;6.68;2.53;;;;;;;;;;6249875;22;20432;-61
2023/07/17 01:21:48;;;;;;;6.80;2.17;;;;;;;;;;6277686;22;20034;-61
2023/07/17 01:24:14;;;;;;;8.40;2.20;;;;;;;;;;6277590;22;20397;-61
2023/07/17 01:26:40;;;;;;;6.40;2.30;;;;;;;;;;6278620;22;20024;-61
2023/07/17 01:29:06;;;;;;;7.05;2.05;;;;;;;;;;6277498;22;20023;-61
2023/07/17 01:31:32;;;;;;;9.02;2.50;;;;;;;;;;6277724;22;20045;-61
2023/07/17 01:33:58;;;;;;;7.70;2.17;;;;;;;;;;6276309;22;20457;-63
2023/07/17 01:36:26;;;;;;;7.65;2.42;;;;;;;;;;6249609;22;20024;-61
2023/07/17 01:38:54;;;;;;;5.53;2.20;;;;;;;;;;6276887;22;20482;-60
2023/07/17 01:41:20;;;;;;;6.30;2.33;;;;;;;;;;6277726;22;20019;-61
2023/07/17 01:43:47;;;;;;;10.80;2.38;;;;;;;;;;6277522;22;20023;-61
2023/07/17 01:46:13;;;;;;;11.23;2.47;;;;;;;;;;6277036;22;20478;-61
2023/07/17 01:48:39;;;;;;;11.38;2.55;;;;;;;;;;6250906;22;20441;-61
2023/07/17 01:51:05;;;;;;;5.07;1.90;;;;;;;;;;6225267;22;20024;-61
2023/07/17 01:53:31;;;;;;;12.50;2.35;;;;;;;;;;6250402;22;20065;-61
2023/07/17 01:55:57;;;;;;;8.52;2.83;;;;;;;;;;6278323;22;20019;-61
2023/07/17 01:58:23;;;;;;;5.35;2.33;;;;;;;;;;6275991;22;20502;-60
2023/07/17 02:00:53;;;;;;;13.60;2.60;;;;;;;;;;6276689;22;20023;-62
2023/07/17 02:03:19;;;;;;;6.57;2.40;;;;;;;;;;6275869;22;20050;-61
2023/07/17 02:05:45;;;;;;;7.60;2.65;;;;;;;;;;6249216;22;20603;-61
2023/07/17 02:08:11;;;;;;;8.27;2.30;;;;;;;;;;6276552;22;20095;-61
2023/07/17 02:10:40;;;;;;;12.07;3.33;;;;;;;;;;6276550;22;20450;-61
2023/07/17 02:13:06;;;;;;;17.43;3.50;;;;;;;;;;6276128;22;20396;-62
2023/07/17 02:15:32;;;;;;;10.77;3.35;;;;;;;;;;6276708;22;20456;-61
2023/07/17 02:17:59;;;;;;;11.68;4.30;;;;;;;;;;6276090;22;20016;-63
2023/07/17 02:20:25;;;;;;;10.93;3.97;;;;;;;;;;6222473;22;20035;-62
2023/07/17 02:22:51;;;;;;;12.00;4.13;;;;;;;;;;6276590;22;20095;-61
2023/07/17 02:25:17;;;;;;;13.35;3.75;;;;;;;;;;6276192;22;20034;-61
2023/07/17 02:27:43;;;;;;;14.55;4.32;;;;;;;;;;6276542;22;20023;-61
2023/07/17 02:30:10;;;;;;;14.20;4.10;;;;;;;;;;6243877;23;20078;-60
2023/07/17 02:32:37;;;;;;;14.25;4.32;;;;;;;;;;6246068;23;20024;-60
2023/07/17 02:35:03;;;;;;;8.43;2.90;;;;;;;;;;6242536;23;20341;-61
2023/07/17 02:37:29;;;;;;;8.05;3.13;;;;;;;;;;6245590;22;20031;-60
2023/07/17 02:39:56;;;;;;;12.40;3.78;;;;;;;;;;6219126;23;20076;-61
2023/07/17 02:42:22;;;;;;;9.90;2.95;;;;;;;;;;6245238;23;20073;-61
2023/07/17 02:44:48;;;;;;;10.85;3.13;;;;;;;;;;6245374;23;20532;-60
2023/07/17 02:47:15;;;;;;;12.80;2.67;;;;;;;;;;6244581;23;20020;-61
2023/07/17 02:49:41;;;;;;;7.68;2.95;;;;;;;;;;6218176;23;20463;-60
2023/07/17 02:52:08;;;;;;;13.07;2.85;;;;;;;;;;6244922;23;20020;-60
2023/07/17 02:54:37;;;;;;;10.23;2.78;;;;;;;;;;6243240;23;20028;-60
2023/07/17 02:57:04;;;;;;;9.38;2.97;;;;;;;;;;6245380;23;20031;-60
2023/07/17 02:59:30;;;;;;;10.05;3.67;;;;;;;;;;6244067;23;20020;-60
2023/07/17 03:01:57;;;;;;;7.95;2.55;;;;;;;;;;6245713;23;20024;-60
2023/07/17 03:04:25;;;;;;;11.20;2.90;;;;;;;;;;6243552;23;20433;-60
2023/07/17 03:06:51;;;;;;;13.90;3.10;;;;;;;;;;6244790;22;20028;-60
2023/07/17 03:09:17;;;;;;;16.95;3.60;;;;;;;;;;6244712;23;20032;-60
2023/07/17 03:11:43;;;;;;;11.25;2.90;;;;;;;;;;6245550;23;20024;-60
2023/07/17 03:14:09;;;;;;;11.05;3.33;;;;;;;;;;6193003;23;20035;-61
2023/07/17 03:16:35;;;;;;;13.32;3.33;;;;;;;;;;6245590;23;20028;-60
2023/07/17 03:19:01;;;;;;;11.88;2.83;;;;;;;;;;6244091;23;20024;-61
2023/07/17 03:21:27;;;;;;;11.57;3.17;;;;;;;;;;6245069;23;20019;-60
2023/07/17 03:23:53;;;;;;;23.08;3.63;;;;;;;;;;6245436;23;20031;-61
2023/07/17 03:26:19;;;;;;;8.38;3.03;;;;;;;;;;6245048;23;20329;-60
2023/07/17 03:28:46;;;;;;;8.07;2.53;;;;;;;;;;6243906;23;20103;-60
2023/07/17 03:31:12;;;;;;;8.75;3.45;;;;;;;;;;6242293;23;20028;-60
2023/07/17 03:33:38;;;;;;;9.07;2.67;;;;;;;;;;6244867;23;20437;-61
2023/07/17 03:36:04;;;;;;;10.43;2.85;;;;;;;;;;6243866;23;20023;-61
2023/07/17 03:38:30;;;;;;;8.93;2.72;;;;;;;;;;6243030;23;20338;-60
2023/07/17 03:40:57;;;;;;;8.85;2.50;;;;;;;;;;6245352;23;20110;-60
2023/07/17 03:43:23;;;;;;;8.00;2.50;;;;;;;;;;6243594;23;20031;-60
2023/07/17 03:45:52;;;;;;;9.98;2.65;;;;;;;;;;6244376;23;20530;-61
2023/07/17 03:48:18;;;;;;;8.00;2.80;;;;;;;;;;6241895;23;20028;-61
2023/07/17 03:50:44;;;;;;;6.40;2.70;;;;;;;;;;6244433;23;20453;-60
2023/07/17 03:53:10;;;;;;;13.13;3.53;;;;;;;;;;6244466;23;20020;-61
2023/07/17 03:55:37;;;;;;;13.52;3.22;;;;;;;;;;6243611;23;20020;-61
2023/07/17 03:58:03;;;;;;;10.18;2.90;;;;;;;;;;6244720;23;20376;-60
2023/07/17 04:00:29;;;;;;;9.18;2.80;;;;;;;;;;6244264;22;20615;-61
2023/07/17 04:02:55;;;;;;;13.80;2.92;;;;;;;;;;6243131;23;20432;-60
2023/07/17 04:05:21;;;;;;;10.73;2.80;;;;;;;;;;6244480;23;20055;-60
2023/07/17 04:07:47;;;;;;;13.43;3.05;;;;;;;;;;6245086;23;20027;-61
2023/07/17 04:10:14;;;;;;;10.63;3.10;;;;;;;;;;6242316;23;20055;-61
2023/07/17 04:12:40;;;;;;;8.77;2.63;;;;;;;;;;6242758;23;20078;-60
2023/07/17 04:15:06;;;;;;;11.60;2.63;;;;;;;;;;6243805;22;20475;-60
2023/07/17 04:17:32;;;;;;;12.82;2.70;;;;;;;;;;6217676;23;20024;-60
2023/07/17 04:19:58;;;;;;;12.68;2.58;;;;;;;;;;6243836;23;20020;-61
2023/07/17 04:22:25;;;;;;;11.98;3.55;;;;;;;;;;6243017;23;20111;-60
2023/07/17 04:24:51;;;;;;;12.25;2.72;;;;;;;;;;6245037;23;20020;-60
2023/07/17 04:27:17;;;;;;;11.20;3.22;;;;;;;;;;6243109;23;20385;-60
2023/07/17 04:29:43;;;;;;;9.65;2.45;;;;;;;;;;6244866;22;20016;-60
2023/07/17 04:32:09;;;;;;;12.20;3.00;;;;;;;;;;6246883;22;20019;-60
2023/07/17 04:34:35;;;;;;;7.10;2.88;;;;;;;;;;6274443;22;20023;-60
2023/07/17 04:37:01;;;;;;;12.80;2.97;;;;;;;;;;6274940;22;20047;-60
2023/07/17 04:39:27;;;;;;;12.70;3.58;;;;;;;;;;6275471;22;20026;-60
2023/07/17 04:41:53;;;;;;;11.88;3.05;;;;;;;;;;6274782;22;20027;-60
2023/07/17 04:44:19;;;;;;;8.40;3.58;;;;;;;;;;6274435;22;20028;-60
2023/07/17 04:46:45;;;;;;;12.85;2.80;;;;;;;;;;6274601;22;20023;-60
2023/07/17 04:49:11;;;;;;;10.95;3.30;;;;;;;;;;6274931;22;20070;-60
2023/07/17 04:51:37;;;;;;;12.60;2.83;;;;;;;;;;6247913;22;20377;-60
2023/07/17 04:54:04;;;;;;;8.23;2.40;;;;;;;;;;6275047;22;20340;-60
2023/07/17 04:56:30;;;;;;;13.30;3.97;;;;;;;;;;6274861;22;20027;-60
2023/07/17 04:58:57;;;;;;;6.28;2.83;;;;;;;;;;6273983;22;20022;-60
2023/07/17 05:01:23;;;;;;;10.70;2.95;;;;;;;;;;6275156;22;20082;-60
2023/07/17 05:03:49;;;;;;;14.90;3.40;;;;;;;;;;6275335;22;20027;-60
2023/07/17 05:06:15;;;;;;;9.13;3.25;;;;;;;;;;6274467;22;20479;-60
2023/07/17 05:08:41;;;;;;;11.63;2.50;;;;;;;;;;6275027;22;20445;-60
2023/07/17 05:11:07;;;;;;;12.45;2.83;;;;;;;;;;6274488;22;20027;-60
2023/07/17 05:13:33;;;;;;;11.07;2.72;;;;;;;;;;6274786;22;20026;-60
2023/07/17 05:15:59;;;;;;;12.70;3.00;;;;;;;;;;6273693;22;20032;-60
2023/07/17 05:18:25;;;;;;;16.27;4.55;;;;;;;;;;6274159;22;20053;-61
2023/07/17 05:20:52;;;;;;;13.90;2.80;;;;;;;;;;6273649;22;20042;-60
2023/07/17 05:23:18;;;;;;;8.05;3.17;;;;;;;;;;6274876;22;20156;-60
2023/07/17 05:25:53;;;;;;;13.98;3.63;;;;;;;;;;6247933;22;20027;-60
2023/07/17 05:28:19;;;;;;;9.57;2.70;;;;;;;;;;6274028;22;20474;-60
2023/07/17 05:30:45;;;;;;;12.48;4.03;;;;;;;;;;6275040;22;20029;-60
2023/07/17 05:33:11;;;;;;;13.77;3.60;;;;;;;;;;6276138;22;20023;-60
2023/07/17 05:35:37;;;;;;;8.00;2.85;;;;;;;;;;6249240;22;20024;-60
2023/07/17 05:38:03;;;;;;;12.07;3.25;;;;;;;;;;6276115;22;20023;-60
2023/07/17 05:40:29;;;;;;;14.50;3.22;;;;;;;;;;6249108;22;20034;-61
2023/07/17 05:42:55;;;;;;;12.13;2.95;;;;;;;;;;6275218;22;20034;-60
2023/07/17 05:45:21;;;;;;;9.38;2.72;;;;;;;;;;6275641;22;20019;-60
2023/07/17 05:47:47;;;;;;;10.07;2.63;;;;;;;;;;6249871;22;20016;-60
2023/07/17 05:50:13;;;;;;;10.50;3.35;;;;;;;;;;6275652;22;20020;-61
2023/07/17 05:52:39;;;;;;;9.57;3.58;;;;;;;;;;6273212;22;20382;-60
2023/07/17 05:55:06;;;;;;;12.30;4.00;;;;;;;;;;6274379;22;20024;-61
2023/07/17 05:57:32;;;;;;;10.00;3.42;;;;;;;;;;6273407;22;20038;-60
2023/07/17 05:59:58;;;;;;;10.13;3.20;;;;;;;;;;6246421;22;20027;-62
2023/07/17 06:02:24;;;;;;;14.20;3.42;;;;;;;;;;6273510;22;20024;-60
2023/07/17 06:04:50;;;;;;;9.88;3.53;;;;;;;;;;6273688;22;20023;-60
2023/07/17 06:07:16;;;;;;;12.52;4.10;;;;;;;;;;6273231;22;20345;-60
2023/07/17 06:09:42;;;;;;;14.00;3.45;;;;;;;;;;6272343;22;20026;-60
2023/07/17 06:12:08;;;;;;;9.82;3.88;;;;;;;;;;6275434;22;20051;-60
2023/07/17 06:14:34;;;;;;;13.65;3.67;;;;;;;;;;6276628;22;20027;-60
2023/07/17 06:17:00;;;;;;;13.02;4.03;;;;;;;;;;6276230;22;20027;-61
2023/07/17 06:19:26;;;;;;;16.27;4.88;;;;;;;;;;6276035;22;20022;-61
2023/07/17 06:21:52;;;;;;;13.05;4.05;;;;;;;;;;6275046;22;20020;-60
2023/07/17 06:24:18;;;;;;;14.52;4.95;;;;;;;;;;6274430;22;20028;-60
2023/07/17 06:26:44;;;;;;;12.27;3.80;;;;;;;;;;6274254;22;20023;-61
2023/07/17 06:29:10;;;;;;;13.80;4.10;;;;;;;;;;6248785;22;20027;-61
2023/07/17 06:31:37;;;;;;;13.00;3.78;;;;;;;;;;6275691;22;20079;-60
2023/07/17 06:34:03;;;;;;;11.40;3.85;;;;;;;;;;6275513;22;20023;-60
2023/07/17 06:36:30;;;;;;;12.32;4.40;;;;;;;;;;6274421;22;20420;-60
2023/07/17 06:38:59;;;;;;;14.45;4.03;;;;;;;;;;6275269;22;20094;-60
2023/07/17 06:41:25;;;;;;;11.48;4.45;;;;;;;;;;6247768;22;20027;-60
2023/07/17 06:43:51;;;;;;;13.95;4.25;;;;;;;;;;6275425;22;20024;-61
2023/07/17 06:46:17;;;;;;;12.57;4.55;;;;;;;;;;6275476;22;20069;-60
2023/07/17 06:48:43;;;;;;;14.10;4.78;;;;;;;;;;6248995;22;20050;-60
2023/07/17 06:51:09;;;;;;;12.07;5.00;;;;;;;;;;6274959;22;20034;-59
2023/07/17 06:53:35;;;;;;;17.17;4.97;;;;;;;;;;6275768;22;20019;-60
2023/07/17 06:56:03;;;;;;;16.48;5.25;;;;;;;;;;6247340;22;20377;-60
2023/07/17 06:58:29;;;;;;;18.20;6.40;;;;;;;;;;6275318;22;20024;-60
2023/07/17 07:00:56;;;;;;;16.70;5.65;;;;;;;;;;6275345;22;20111;-60
2023/07/17 07:03:23;;;;;;;16.23;5.90;;;;;;;;;;6272525;22;20038;-60
2023/07/17 07:06:01;;;;;;;15.77;5.70;;;;;;;;;;6272002;22;20028;-61
2023/07/17 07:08:31;;;;;;;13.73;4.95;;;;;;;;;;6273726;22;20408;-60
2023/07/17 07:10:58;;;;;;;15.98;5.47;;;;;;;;;;6246782;22;20027;-60
2023/07/17 07:13:24;;;;;;;17.63;5.00;;;;;;;;;;6248166;22;20023;-60
2023/07/17 07:15:51;;;;;;;13.10;4.45;;;;;;;;;;6276120;22;20030;-60
2023/07/17 07:18:17;;;;;;;12.93;4.30;;;;;;;;;;6274295;22;20433;-61
2023/07/17 07:20:43;;;;;;;15.82;5.90;;;;;;;;;;6275424;22;20086;-60
2023/07/17 07:23:10;;;;;;;19.48;5.78;;;;;;;;;;6274315;22;20027;-62
2023/07/17 07:25:36;;;;;;;13.15;4.97;;;;;;;;;;6275384;22;20024;-60
2023/07/17 07:28:02;;;;;;;9.85;3.47;;;;;;;;;;6274849;22;20031;-61
2023/07/17 07:30:28;;;;;;;12.75;4.35;;;;;;;;;;6275721;22;20161;-60
2023/07/17 07:32:54;;;;;;;9.90;3.97;;;;;;;;;;6274697;22;20390;-60
2023/07/17 07:35:20;;;;;;;10.40;3.47;;;;;;;;;;6246897;22;20028;-60
2023/07/17 07:37:46;;;;;;;10.18;3.08;;;;;;;;;;6247257;22;20069;-60
2023/07/17 07:40:12;;;;;;;12.50;3.65;;;18.20;99.90;;;;;;6275210;22;20027;-60
2023/07/17 07:42:44;;;;;;;13.88;4.53;;;18.20;99.90;;;;;;6275436;22;20525;-60
2023/07/17 07:45:11;;;;;;;10.88;3.58;;;;;;;;;;6274158;22;20025;-60
2023/07/17 07:47:38;;;;;;;9.07;3.50;;;;;;;;;;6248684;22;20030;-60
2023/07/17 07:50:04;;;;;;;7.75;2.83;;;18.80;99.90;;;;;;6274909;22;20019;-60
2023/07/17 07:52:30;;;;;;;14.00;5.07;;;;;;;;;;6274742;22;20024;-60
2023/07/17 07:54:56;;;;;;;10.35;3.70;;;;;;;;;;6274276;22;20389;-60
2023/07/17 07:57:22;;;;;;;17.48;4.50;;;19.20;99.90;;;;;;6247969;22;20024;-60
2023/07/17 07:59:51;;;;;;;7.95;2.97;;;;;;;;;;6274896;22;20024;-61
2023/07/17 08:02:17;;;;;;;11.80;4.05;;;;;;;;;;6273665;22;20488;-60
2023/07/17 08:04:44;;;;;;;6.40;2.25;;;;;;;;;;6275351;22;20031;-60
2023/07/17 08:07:10;;;;;;;12.50;3.58;;;;;;;;;;6247252;22;20397;-60
2023/07/17 08:09:37;;;;;;;9.95;3.38;;;;;;;;;;6247665;22;20444;-61
2023/07/17 08:12:03;;;;;;;7.95;2.63;;;;;;;;;;6273739;22;20028;-61
2023/07/17 08:14:29;;;;;;;9.18;2.80;;;;;;;;;;6275105;22;20023;-60
2023/07/17 08:16:55;;;;;;;10.48;2.85;;;;;;;;;;6274862;22;20085;-60
2023/07/17 08:19:21;;;;;;;10.30;2.60;;;18.80;99.90;;;;;;6275143;22;20451;-61
2023/07/17 08:21:47;;;;;;;7.68;3.45;;;;;;;;;;6275353;22;20020;-60
2023/07/17 08:24:15;;;;;;;9.73;2.78;;;;;;;;;;6247252;22;20019;-60
2023/07/17 08:26:43;;;;;;;8.77;3.40;;;;;;;;;;6275046;22;20020;-60
2023/07/17 08:29:09;;;;;;;10.00;2.60;;;20.20;99.90;;;;;;6274661;22;20024;-60
2023/07/17 08:31:35;;;;;;;8.50;2.47;;;20.40;99.90;;;;;;6274313;22;20157;-60
2023/07/17 08:34:01;;;;;;;12.52;2.17;;;;;;;;;;6272707;22;20811;-60
2023/07/17 08:36:31;;;;;;;9.63;2.28;;;20.60;99.90;;;;;;6273779;22;20031;-60
2023/07/17 08:38:58;;;;;;;10.73;2.65;;;20.80;99.90;;;;;;6273942;22;20432;-60
2023/07/17 08:41:24;;;;;;;5.05;1.70;;;21.20;99.90;;;;;;6274910;22;20061;-60
2023/07/17 08:43:50;;;;;;;4.20;1.60;;;;;;;;;;6274525;22;20016;-59
2023/07/17 08:46:16;;;;;;;3.80;1.50;;;21.20;99.90;;;;;;6274062;22;20027;-60
2023/07/17 08:48:45;;;;;;;4.35;1.73;;;21.10;99.90;;;;;;6273673;22;20073;-60
2023/07/17 08:51:14;;;;;;;4.85;1.48;;;21.20;99.90;;;;;;6273839;22;20065;-60
2023/07/17 08:53:43;;;;;;;5.43;1.83;;;20.90;99.90;;;;;;6274165;22;20457;-60
2023/07/17 08:56:11;;;;;;;6.75;2.30;;;21.10;99.90;;;;;;6274107;22;20031;-60
2023/07/17 08:58:38;;;;;;;7.68;2.60;;;21.30;99.90;;;;;;6246457;22;20019;-61
2023/07/17 09:01:04;;;;;;;7.50;2.25;;;21.30;99.90;;;;;;6246290;22;20077;-60
2023/07/17 09:03:32;;;;;;;9.35;2.38;;;21.10;99.90;;;;;;6247604;22;20049;-60
2023/07/17 09:06:02;;;;;;;7.07;1.80;;;21.30;99.90;;;;;;6273998;22;20023;-62
2023/07/17 09:08:27;;;;;;;9.30;1.85;;;21.40;99.90;;;;;;6275868;22;20016;-60
2023/07/17 09:11:07;;;;;;;3.80;1.58;;;21.50;99.90;;;;;;6248984;22;20058;-60
2023/07/17 09:13:38;;;;;;;5.40;1.65;;;21.20;99.90;;;;;;6276479;22;20158;-60
2023/07/17 09:16:14;;;;;;;8.05;1.95;;;21.10;99.90;;;;;;6275195;22;20012;-59
2023/07/17 09:18:40;;;;;;;4.22;1.90;;;20.90;99.90;;;;;;6248777;22;20020;-60
2023/07/17 09:21:06;;;;;;;8.55;2.10;;;;;;;;;;6248657;22;20091;-59
2023/07/17 09:23:40;;;;;;;6.90;2.50;;;21.20;99.90;;;;;;6275956;22;20464;-60
2023/07/17 09:26:06;;;;;;;6.70;1.98;;;21.60;99.90;;;;;;6274950;22;20020;-60
2023/07/17 09:28:44;;;;;;;5.75;2.30;;;21.60;99.90;;;;;;6276593;22;20452;-59
2023/07/17 09:31:10;;;;;;;5.53;2.05;;;;;;;;;;6275453;22;20456;-59
2023/07/17 09:33:37;;;;;;;4.85;2.03;;;;;;;;;;6276442;22;20023;-60
2023/07/17 09:36:03;;;;;;;9.80;3.22;;;20.60;99.90;;;;;;6247526;22;20027;-60
2023/07/17 09:38:31;;;;;;;4.25;1.63;;;20.90;99.90;;;;;;6249682;22;20020;-60
2023/07/17 09:40:57;;;;;;;6.22;2.10;;;21.00;99.90;;;;;;6276392;22;20043;-61
2023/07/17 09:43:30;;;;;;;10.32;3.90;;;;;;;;;;6276919;22;20314;-60
2023/07/17 09:46:03;;;;;;;5.78;2.20;;;20.80;99.90;;;;;;6276337;22;20027;-59
2023/07/17 09:48:32;;;;;;;4.15;1.83;;;;;;;;;;6276513;22;20024;-60
2023/07/17 09:50:58;;;;;;;5.82;1.90;;;;;;;;;;6276111;22;20459;-61
2023/07/17 09:53:24;;;;;;;7.05;2.13;;;20.80;99.90;;;;;;6276895;22;20031;-60
2023/07/17 09:55:52;;;;;;;7.72;2.38;;;21.10;99.90;;;;;;6275319;22;20043;-59
2023/07/17 09:58:18;;;;;;;6.68;1.92;;;21.30;99.90;;;;;;6276518;22;20012;-60
2023/07/17 10:00:46;;;;;;;6.38;2.30;;;21.10;99.90;;;;;;6248727;22;20095;-60
2023/07/17 10:03:20;;;;;;;7.55;2.42;;;21.00;99.90;;;;;;6275163;22;20027;-60
2023/07/17 10:05:50;;;;;;;6.93;2.60;;;20.80;99.90;;;;;;6249503;22;20066;-60
2023/07/17 10:08:18;;;;;;;8.23;2.28;;;21.00;99.90;;;;;;6275763;22;20313;-60
2023/07/17 10:10:43;;;;;;;8.50;2.42;;;21.40;99.90;;;;;;6249224;22;20023;-60
2023/07/17 10:13:10;;;;;;;6.90;2.15;;;21.40;99.90;;;;;;6248613;22;20073;-59
2023/07/17 10:15:39;;;;;;;7.38;2.25;;;21.40;99.90;;;;;;6275478;22;20016;-60
2023/07/17 10:18:11;;;;;;;6.70;2.65;;;21.40;99.90;;;;;;6274352;22;20024;-60
2023/07/17 10:20:38;;;;;;;7.78;2.42;;;21.50;99.90;;;;;;6276629;22;20094;-59
2023/07/17 10:23:09;;;;;;;5.82;1.83;;;21.50;99.90;;;;;;6248692;22;20027;-60
2023/07/17 10:25:36;;;;;;;9.25;2.33;;;21.60;99.90;;;;;;6276568;22;20031;-59
2023/07/17 10:28:04;;;;;;;7.63;2.13;;;21.80;99.90;;;;;;6276478;22;20020;-60
2023/07/17 10:30:34;;;;;;;4.80;2.33;;;22.20;99.90;;;;;;6243817;23;20066;-60
2023/07/17 10:33:06;;;;;;;;;;;22.10;99.90;;;;;;6242074;23;20031;-60
2023/07/17 10:35:47;;;;;;;8.70;2.20;;;22.60;99.90;;;;;;6246013;22;19923;-60
2023/07/17 10:38:26;;;;;;;7.05;2.75;;;23.00;99.90;;;;;;6245851;22;20026;-59
2023/07/17 10:41:14;;;;;;;7.47;2.00;;;22.70;99.90;;;;;;6245927;22;20103;-60
2023/07/17 10:44:07;;;;;;;9.40;2.88;;;22.40;99.90;;;;;;6242959;22;20453;-60
2023/07/17 10:46:35;;;;;;;5.60;1.58;;;22.50;99.90;;;;;;6243830;23;20032;-60
2023/07/17 10:49:08;;;;;;;9.43;2.58;;;22.20;99.90;;;;;;6245253;22;20016;-59
2023/07/17 10:51:36;;;;;;;5.50;2.17;;;22.20;99.90;;;;;;6245426;22;20024;-60
2023/07/17 10:54:02;;;;;;;10.25;2.10;;;22.60;99.90;;;;;;6244898;22;20062;-60
2023/07/17 10:56:31;;;;;;;6.82;2.08;;;22.50;99.90;;;;;;6244190;23;20052;-63
2023/07/17 10:58:57;;;;;;;3.95;1.52;;;;;;;;;;6244847;22;20020;-60
2023/07/17 11:01:23;;;;;;;4.13;1.75;;;22.10;99.90;;;;;;6243777;23;20103;-60
2023/07/17 11:03:49;;;;;;;4.65;1.55;;;;;;;;;;6242949;23;20082;-59
2023/07/17 11:06:17;;;;;;;6.53;1.70;;;21.50;99.90;;;;;;6245043;23;20024;-60
2023/07/17 11:08:52;;;;;;;5.70;1.80;;;21.30;99.90;;;;;;6245106;22;20016;-60
2023/07/17 11:11:18;;;;;;;8.10;2.50;;;;;;;;;;6241994;23;20508;-59
2023/07/17 11:13:48;;;;;;;8.13;2.05;;;21.20;99.90;;;;;;6244043;23;20031;-59
2023/07/17 11:16:14;;;;;;;;;;;21.40;99.90;;;;;;6245074;22;20027;-60
2023/07/17 11:18:47;;;;;;;8.95;2.55;;;21.40;99.90;;;;;;6244836;22;19919;-60
2023/07/17 11:21:14;;;;;;;11.38;2.75;;;21.90;99.90;;;;;;6244640;22;20051;-60
2023/07/17 11:23:47;;;;;;;5.55;2.00;;;22.10;99.90;;;;;;6243519;22;20024;-59
2023/07/17 11:26:13;;;;;;;6.25;2.13;;;;;;;;;;6244337;22;20074;-60
2023/07/17 11:28:40;;;;;;;5.78;1.52;;;22.40;99.90;;;;;;6245144;23;20020;-59
2023/07/17 11:31:17;;;;;;;7.45;1.90;;;22.40;99.90;;;;;;6260604;22;20054;-59
2023/07/17 11:33:54;;;;;;;4.47;1.90;;;22.10;99.90;;;;;;6275667;22;20019;-59
2023/07/17 11:36:20;;;;;;;7.35;1.75;;;;;;;;;;6248421;22;20065;-60
2023/07/17 11:38:46;;;;;;;13.63;2.38;;;;;;;;;;6275656;22;20016;-59
2023/07/17 11:41:12;;;;;;;6.35;2.10;;;;;;;;;;6274589;22;20024;-59
2023/07/17 11:43:38;;;;;;;3.85;2.03;;;;;;;;;;6275136;22;20055;-59
2023/07/17 11:46:11;;;;;;;7.72;1.90;;;;;;;;;;6274602;22;20016;-59
2023/07/17 11:48:41;;;;;;;4.82;1.77;;;22.40;99.90;;;;;;6246522;22;20405;-59
2023/07/17 11:51:07;;;;;;;3.72;1.63;;;;;;;;;;6247796;22;20318;-60
2023/07/17 11:53:34;;;;;;;5.53;1.90;;;22.50;99.90;;;;;;6275394;22;20027;-58
2023/07/17 11:56:01;;;;;;;3.80;1.27;;;;;;;;;;6275401;22;20027;-61
2023/07/17 11:58:29;;;;;;;6.20;1.80;;;22.40;99.90;;;;;;6247956;22;20062;-61
2023/07/17 12:00:56;;;;;;;7.65;1.95;;;;;;;;;;6273692;22;20082;-61
2023/07/17 12:03:22;;;;;;;12.50;2.35;;;;;;;;;;6273753;22;20077;-60
2023/07/17 12:05:48;;;;;;;4.32;1.40;;;;;;;;;;6275089;22;20024;-61
2023/07/17 12:08:15;;;;;;;3.20;1.20;;;;;;;;;;6274625;22;20639;-62
2023/07/17 12:10:41;;;;;;;5.20;1.50;;;22.00;99.90;;;;;;6274374;22;20055;-61
2023/07/17 12:13:07;;;;;;;6.93;1.77;;;22.20;99.90;;;;;;6246732;22;20027;-61
2023/07/17 12:15:33;;;;;;;4.93;1.55;;;;;;;;;;6274976;22;20149;-61
2023/07/17 12:18:00;;;;;;;3.67;1.15;;;;;;;;;;6274963;22;20055;-62
2023/07/17 12:20:26;;;;;;;6.70;1.65;;;;;;;;;;6273194;22;20030;-61
2023/07/17 12:22:54;;;;;;;6.60;1.73;;;22.40;99.90;;;;;;6274104;22;20063;-61
2023/07/17 12:25:20;;;;;;;7.93;1.73;;;;;;;;;;6274929;22;20019;-62
2023/07/17 12:27:47;;;;;;;4.80;1.40;;;;;;;;;;6274586;22;20023;-61
2023/07/17 12:30:14;;;;;;;5.45;1.60;;;22.50;99.90;;;;;;6274246;22;20076;-62
2023/07/17 12:32:41;;;;;;;7.10;1.58;;;;;;;;;;6275592;22;20422;-61
2023/07/17 12:35:07;;;;;;;7.68;1.92;;;22.60;99.90;;;;;;6247416;22;20336;-61
2023/07/17 12:37:34;;;;;;;7.00;1.92;;;;;;;;;;6274983;22;20095;-61
2023/07/17 12:40:00;;;;;;;3.53;1.48;;;;;;;;;;6247803;22;20441;-61
2023/07/17 12:42:26;;;;;;;3.67;1.60;;;;;;;;;;6272845;22;20357;-61
2023/07/17 12:44:52;;;;;;;7.63;2.00;;;22.20;99.90;;;;;;6248076;22;20512;-60
2023/07/17 12:47:18;;;;;;;5.85;2.10;;;;;;;;;;6247082;22;20051;-64
2023/07/17 12:49:44;;;;;;;7.57;2.17;;;;;;;;;;6274443;22;20020;-58
2023/07/17 12:52:11;;;;;;;6.65;1.73;;;;;;;;;;6274230;22;20035;-60
2023/07/17 12:54:36;;;;;;;5.68;1.80;;;21.60;99.90;;;;;;6246581;22;20389;-60
2023/07/17 12:57:03;;;;;;;10.90;2.33;;;21.60;99.90;;;;;;6273157;22;20028;-61
2023/07/17 12:59:29;;;;;;;10.35;2.20;;;;;;;;;;6273048;22;20422;-57
2023/07/17 13:01:59;;;;;;;5.85;3.10;;;;;;;;;;6273978;22;20098;-57
2023/07/17 13:04:25;;;;;;;6.05;2.10;;;;;;;;;;6275219;22;20442;-57
2023/07/17 13:06:51;;;;;;;5.68;2.00;;;;;;;;;;6248073;22;20031;-56
2023/07/17 13:09:18;;;;;;;7.25;1.67;;;;;;;;;;6274758;22;20110;-58
2023/07/17 13:11:44;;;;;;;8.80;2.42;;;;;;;;;;6274227;22;20051;-56
2023/07/17 13:14:10;;;;;;;8.93;2.17;;;;;;;;;;6274439;22;20067;-57
2023/07/17 13:16:36;;;;;;;6.72;2.20;;;19.90;99.90;;;;;;6274738;22;20030;-56
2023/07/17 13:19:02;;;;;;;7.25;2.13;;;;;;;;;;6247518;22;20179;-56
2023/07/17 13:21:28;;;;;;;10.02;3.22;;;;;;;;;;6274713;22;20478;-56
2023/07/17 13:23:58;;;;;;;11.45;2.75;;;;;;;;;;6274729;22;20077;-56
2023/07/17 13:26:24;;;;;;;;;;;;;;;;;;6274632;22;20094;-56
2023/07/17 13:28:50;;;;;;;6.38;2.33;;;;;;;;;;6248012;22;19950;-57
2023/07/17 13:31:16;;;;;;;9.52;2.08;;;;;;;;;;6241523;23;20020;-56
2023/07/17 13:33:43;;;;;;;7.97;2.72;;;;;;;;;;6243503;23;20024;-58
2023/07/17 13:36:09;;;;;;;5.82;2.65;;;;;;;;;;6242458;23;20713;-57
2023/07/17 13:38:35;;;;;;;5.05;1.90;;;;;;;;;;6243366;23;20357;-57
2023/07/17 13:41:01;;;;;;;5.07;2.13;;;;;;;;;;6243513;23;20027;-57
2023/07/17 13:43:27;;;;;;;4.45;1.42;;;;;;;;;;6242502;23;20798;-57
2023/07/17 13:45:53;;;;;;;5.43;1.77;;;21.40;99.90;;;;;;6244432;23;20020;-56
2023/07/17 13:48:19;;;;;;;5.72;1.92;;;;;;;;;;6243800;23;20314;-60
2023/07/17 13:50:45;;;;;;;4.20;1.42;;;21.30;99.90;;;;;;6244563;23;20047;-62
2023/07/17 13:53:12;;;;;;;6.47;2.03;;;;;;;;;;6243241;22;20449;-59
2023/07/17 13:55:38;;;;;;;6.50;1.80;;;;;;;;;;6244366;23;20380;-61
2023/07/17 13:58:04;;;;;;;3.78;2.03;;;;;;;;;;6243587;23;20020;-62
2023/07/17 14:00:30;;;;;;;5.18;1.98;;;;;;;;;;6245307;23;20032;-62
2023/07/17 14:02:57;;;;;;;6.63;1.85;;;;;;;;;;6244404;23;20016;-56
2023/07/17 14:05:23;;;;;;;6.30;1.80;;;22.20;99.90;;;;;;6244397;22;20035;-60
2023/07/17 14:07:48;;;;;;;6.43;1.77;;;22.20;99.90;;;;;;6242824;23;20012;-63